Time;durP1;ratioP1;P1;durP2;ratioP2;P2;SDS_P1;SDS_P2;PMS_P1;PMS_P2;Temp;Humidity;BMP_temperature;BMP_pressure;BME280_temperature;BME280_humidity;BME280_pressure;Samples;Min_cycle;Max_cycle;Signal;HPM_P1;HPM_P2
2021/04/06 00:01:01;;;;;;;1.30;1.30;;;;;;;-1.70;100.00;100435.06;5034921;28;20056;-77
2021/04/06 00:04:06;;;;;;;1.63;1.52;;;;;;;-1.66;100.00;100436.66;5034895;28;21241;-77
2021/04/06 00:07:13;;;;;;;2.50;2.35;;;;;;;-1.66;100.00;100433.13;5037303;28;20052;-77
2021/04/06 00:10:46;;;;;;;1.25;1.25;;;;;;;-1.65;100.00;100435.50;5036678;28;20508;-78
2021/04/06 00:13:50;;;;;;;1.08;1.08;;;;;;;-1.69;100.00;100431.94;5033748;28;20056;-77
2021/04/06 00:16:55;;;;;;;1.20;1.20;;;;;;;-1.73;100.00;100430.34;5034113;28;20041;-77
2021/04/06 00:20:00;;;;;;;1.27;1.27;;;;;;;-1.74;100.00;100429.56;5034593;28;20060;-77
2021/04/06 00:23:07;;;;;;;0.90;0.90;;;;;;;-1.73;100.00;100433.84;5039202;28;20060;-79
2021/04/06 00:26:11;;;;;;;1.45;1.45;;;;;;;-1.64;100.00;100428.06;5040416;28;20060;-77
2021/04/06 00:29:16;;;;;;;1.65;1.65;;;;;;;-1.61;100.00;100427.31;5031516;28;20385;-77
2021/04/06 00:32:21;;;;;;;0.70;0.70;;;;;;;-1.63;100.00;100422.25;5032249;28;20497;-76
2021/04/06 00:35:28;;;;;;;1.30;1.30;;;;;;;-1.69;100.00;100412.81;5033101;28;20064;-77
2021/04/06 00:38:37;;;;;;;1.65;1.65;;;;;;;-1.71;100.00;100417.88;5032982;28;20126;-77
2021/04/06 00:41:40;;;;;;;1.10;1.10;;;;;;;-1.74;100.00;100420.59;5032233;28;20048;-77
2021/04/06 00:44:51;;;;;;;1.40;1.40;;;;;;;-1.76;100.00;100415.53;5032641;28;20390;-77
2021/04/06 00:48:08;;;;;;;1.85;1.52;;;;;;;-1.75;100.00;100408.88;5032312;28;20378;-78
2021/04/06 00:51:12;;;;;;;5.25;1.85;;;;;;;-1.78;100.00;100412.38;5032842;28;20394;-78
2021/04/06 00:54:15;;;;;;;1.65;1.65;;;;;;;-1.78;100.00;100400.69;5032581;28;20048;-77
2021/04/06 00:57:22;;;;;;;1.40;1.40;;;;;;;-1.77;100.00;100397.56;5032914;28;20048;-77
2021/04/06 01:00:30;;;;;;;1.45;1.45;;;;;;;-1.81;100.00;100395.97;5032403;28;20048;-77
2021/04/06 01:03:33;;;;;;;1.38;1.38;;;;;;;-1.86;100.00;100397.09;5032353;28;20049;-77
2021/04/06 01:06:57;;;;;;;1.20;1.20;;;;;;;-1.92;100.00;100393.16;5032537;28;20048;-77
2021/04/06 01:10:03;;;;;;;1.83;1.83;;;;;;;-1.96;100.00;100391.56;5032877;28;20056;-77
2021/04/06 01:13:07;;;;;;;1.40;1.40;;;;;;;-1.96;100.00;100395.09;5031583;28;20044;-77
2021/04/06 01:16:10;;;;;;;1.67;1.67;;;;;;;-1.97;100.00;100393.50;5032523;28;20052;-78
2021/04/06 01:19:15;;;;;;;1.38;1.38;;;;;;;-2.00;100.00;100383.38;5032717;28;20048;-78
2021/04/06 01:22:20;;;;;;;1.20;1.20;;;;;;;-2.03;100.00;100388.78;5032427;28;20493;-77
2021/04/06 01:25:25;;;;;;;1.27;1.27;;;;;;;-2.03;100.00;100389.56;5032096;28;20060;-77
2021/04/06 01:28:32;;;;;;;1.45;1.45;;;;;;;-1.99;100.00;100390.38;5032244;28;20056;-77
2021/04/06 01:31:35;;;;;;;1.10;1.10;;;;;;;-1.88;100.00;100391.25;5032521;28;20060;-77
2021/04/06 01:34:40;;;;;;;1.42;1.42;;;;;;;-1.91;100.00;100386.56;5032208;28;20049;-77
2021/04/06 01:37:44;;;;;;;2.03;1.60;;;;;;;-1.94;100.00;100379.13;5031336;28;20060;-77
2021/04/06 01:40:48;;;;;;;1.60;1.60;;;;;;;-1.95;100.00;100384.97;5032621;28;20064;-78
2021/04/06 01:43:52;;;;;;;1.33;1.33;;;;;;;-1.97;100.00;100390.00;5032272;28;20053;-77
2021/04/06 01:46:57;;;;;;;2.85;2.75;;;;;;;-1.99;100.00;100393.09;5031991;28;20056;-77
2021/04/06 01:50:00;;;;;;;1.50;1.50;;;;;;;-1.99;100.00;100379.47;5032451;28;20048;-79
2021/04/06 01:53:05;;;;;;;4.72;1.67;;;;;;;-1.99;100.00;100379.47;5032257;28;20053;-77
2021/04/06 01:56:13;;;;;;;1.42;1.42;;;;;;;-1.92;100.00;100378.72;5031960;28;20060;-77
2021/04/06 01:59:27;;;;;;;1.40;1.40;;;;;;;-1.90;100.00;100377.19;5032437;28;20045;-77
2021/04/06 02:02:31;;;;;;;17.55;1.30;;;;;;;-1.84;100.00;100383.09;5035821;28;20049;-78
2021/04/06 02:05:35;;;;;;;1.20;1.20;;;;;;;-1.78;100.00;100384.31;5035837;28;20045;-77
2021/04/06 02:08:48;;;;;;;1.30;1.30;;;;;;;-1.77;100.00;100381.19;5035768;28;20049;-77
2021/04/06 02:11:51;;;;;;;1.30;1.30;;;;;;;-1.81;100.00;100377.66;5035734;28;20048;-77
2021/04/06 02:15:01;;;;;;;1.30;1.30;;;;;;;-1.84;100.00;100381.13;5035507;28;20041;-77
2021/04/06 02:18:05;;;;;;;1.40;1.40;;;;;;;-1.82;100.00;100372.59;5034820;28;20054;-77
2021/04/06 02:21:08;;;;;;;1.20;1.20;;;;;;;-1.76;100.00;100377.31;5035510;28;20044;-77
2021/04/06 02:24:27;;;;;;;1.20;1.20;;;;;;;-1.74;100.00;100377.72;5035485;28;20496;-77
2021/04/06 02:27:34;;;;;;;1.23;1.23;;;;;;;-1.71;100.00;100365.25;5035539;28;20044;-77
2021/04/06 02:30:37;;;;;;;1.95;1.60;;;;;;;-1.68;100.00;100380.84;5035372;28;20052;-77
2021/04/06 02:33:41;;;;;;;1.20;1.20;;;;;;;-1.71;100.00;100368.75;5035232;28;20041;-77
2021/04/06 02:36:46;;;;;;;1.05;1.05;;;;;;;-1.71;100.00;100368.75;5035386;28;20398;-77
2021/04/06 02:39:51;;;;;;;25.63;2.15;;;;;;;-1.68;100.00;100362.53;5035296;28;20064;-77
2021/04/06 02:42:57;;;;;;;1.77;1.70;;;;;;;-1.66;100.00;100364.88;5035329;28;20470;-77
2021/04/06 02:46:00;;;;;;;4.43;1.80;;;;;;;-1.71;100.00;100362.53;5035506;28;20374;-77
2021/04/06 02:49:04;;;;;;;1.20;1.20;;;;;;;-1.76;100.00;100363.66;5034930;28;20493;-78
2021/04/06 02:52:08;;;;;;;1.58;1.58;;;;;;;-1.81;100.00;100350.34;5034971;28;20048;-77
2021/04/06 02:55:13;;;;;;;1.30;1.30;;;;;;;-1.81;100.00;100366.72;5035005;28;20045;-77
2021/04/06 02:58:17;;;;;;;1.30;1.30;;;;;;;-1.81;100.00;100363.22;5035243;28;20060;-77
2021/04/06 03:01:20;;;;;;;1.38;1.38;;;;;;;-1.79;100.00;100355.44;5034842;28;20052;-78
2021/04/06 03:04:27;;;;;;;1.30;1.30;;;;;;;-1.73;100.00;100349.22;5034785;28;20064;-77
2021/04/06 03:07:31;;;;;;;1.42;1.42;;;;;;;-1.73;100.00;100346.50;5034585;28;20044;-77
2021/04/06 03:10:36;;;;;;;1.02;1.02;;;;;;;-1.68;100.00;100343.41;5034446;28;20048;-78
2021/04/06 03:13:41;;;;;;;1.10;1.10;;;;;;;-1.67;100.00;100352.41;5034551;28;20385;-77
2021/04/06 03:16:48;;;;;;;2.00;1.90;;;;;;;-1.70;100.00;100343.03;5034549;28;20125;-77
2021/04/06 03:19:58;;;;;;;1.60;1.60;;;;;;;-1.71;100.00;100333.25;5034330;28;20076;-77
2021/04/06 03:23:04;;;;;;;1.40;1.40;;;;;;;-1.67;100.00;100336.78;5014333;28;20048;-77
2021/04/06 03:26:08;;;;;;;1.90;1.00;;;;;;;-1.66;100.00;100332.91;5013807;28;20057;-77
2021/04/06 03:29:11;;;;;;;1.30;1.30;;;;;;;-1.68;100.00;100328.97;5014348;28;20049;-77
2021/04/06 03:32:15;;;;;;;1.60;1.50;;;;;;;-1.76;100.00;100339.09;5014557;28;20041;-77
2021/04/06 03:35:22;;;;;;;2.78;2.65;;;;;;;-1.82;100.00;100329.66;5014645;28;20045;-77
2021/04/06 03:38:25;;;;;;;1.35;1.35;;;;;;;-1.88;100.00;100333.94;5014371;28;20125;-77
2021/04/06 03:41:31;;;;;;;1.50;1.50;;;;;;;-1.90;100.00;100328.06;5014508;28;20053;-77
2021/04/06 03:44:35;;;;;;;1.40;1.40;;;;;;;-1.98;100.00;100329.19;5014292;28;20049;-77
2021/04/06 03:47:58;;;;;;;0.93;0.93;;;;;;;-2.07;100.00;100339.66;5014074;28;20045;-77
2021/04/06 03:51:04;;;;;;;1.55;1.55;;;;;;;-2.21;100.00;100345.00;5014222;28;20044;-77
2021/04/06 03:54:08;;;;;;;0.70;0.70;;;;;;;-2.24;100.00;100340.28;5014165;28;20382;-77
2021/04/06 03:57:23;;;;;;;4.38;1.80;;;;;;;-2.27;100.00;100334.81;5014055;28;20061;-77
2021/04/06 04:00:27;;;;;;;1.30;1.30;;;;;;;-2.26;100.00;100326.25;5013791;28;20048;-77
2021/04/06 04:03:30;;;;;;;1.40;1.40;;;;;;;-2.20;100.00;100324.75;5013781;28;20049;-77
2021/04/06 04:06:33;;;;;;;1.50;1.50;;;;;;;-2.17;100.00;100332.19;5013837;28;20525;-77
2021/04/06 04:09:36;;;;;;;1.60;1.60;;;;;;;-2.17;100.00;100326.72;5013698;28;20501;-77
2021/04/06 04:12:40;;;;;;;1.17;1.17;;;;;;;-2.07;100.00;100327.94;5013805;28;20049;-77
2021/04/06 04:15:43;;;;;;;1.70;1.60;;;;;;;-2.12;100.00;100331.81;5013898;28;20061;-77
2021/04/06 04:18:47;;;;;;;2.13;2.03;;;;;;;-2.19;100.00;100337.22;5013482;28;20053;-77
2021/04/06 04:21:50;;;;;;;1.30;1.30;;;;;;;-2.29;100.00;100327.00;5026516;28;20044;-77
2021/04/06 04:24:53;;;;;;;1.10;1.10;;;;;;;-2.36;100.00;100332.41;5033335;28;20049;-77
2021/04/06 04:27:57;;;;;;;1.42;1.42;;;;;;;-2.46;100.00;100330.34;5033319;28;20056;-78
2021/04/06 04:31:09;;;;;;;2.05;1.95;;;;;;;-2.44;100.00;100333.50;5034980;28;20159;-78
2021/04/06 04:34:13;;;;;;;5.82;1.25;;;;;;;-2.41;100.00;100327.31;5032121;28;20068;-77
2021/04/06 04:37:16;;;;;;;1.52;1.52;;;;;;;-2.33;100.00;100318.00;5032591;28;20385;-77
2021/04/06 04:40:20;;;;;;;1.70;1.70;;;;;;;-2.27;100.00;100319.22;5032965;28;20041;-77
2021/04/06 04:43:23;;;;;;;2.40;1.50;;;;;;;-2.25;100.00;100333.25;5033109;28;20052;-77
2021/04/06 04:46:29;;;;;;;1.23;1.23;;;;;;;-2.21;100.00;100334.09;5032979;28;20544;-77
2021/04/06 04:49:32;;;;;;;1.45;1.45;;;;;;;-2.25;100.00;100324.31;5032978;28;20052;-78
2021/04/06 04:52:35;;;;;;;1.33;1.33;;;;;;;-2.28;100.00;100328.56;5032762;28;20045;-77
2021/04/06 04:55:39;;;;;;;1.20;1.20;;;;;;;-2.29;100.00;100332.44;5032648;28;20045;-78
2021/04/06 04:58:42;;;;;;;1.90;1.80;;;;;;;-2.31;100.00;100326.59;5032835;28;20052;-77
2021/04/06 05:01:46;;;;;;;1.58;1.58;;;;;;;-2.26;100.00;100326.25;5031674;28;20117;-77
2021/04/06 05:04:50;;;;;;;1.50;1.50;;;;;;;-2.35;100.00;100326.56;5032687;28;20397;-77
2021/04/06 05:07:53;;;;;;;1.30;1.30;;;;;;;-2.45;100.00;100327.25;5032726;28;20056;-77
2021/04/06 05:10:57;;;;;;;1.45;1.45;;;;;;;-2.56;100.00;100317.44;5032573;28;20049;-77
2021/04/06 05:14:00;;;;;;;1.00;1.00;;;;;;;-2.65;100.00;100327.84;5032656;28;20053;-77
2021/04/06 05:17:04;;;;;;;14.23;3.75;;;;;;;-2.74;100.00;100322.72;5032313;28;20052;-77
2021/04/06 05:20:08;;;;;;;2.42;2.33;;;;;;;-2.81;100.00;100328.09;5032320;28;20037;-77
2021/04/06 05:27:52;;;;;;;2.90;2.55;;;;;;;-2.94;100.00;100317.81;5013297;28;20498;-75
2021/04/06 05:30:55;;;;;;;9.77;3.22;;;;;;;-2.97;100.00;100329.47;5012822;28;20490;-77
2021/04/06 05:33:59;;;;;;;15.48;4.88;;;;;;;-3.01;100.00;100329.41;5012591;28;20374;-78
2021/04/06 05:37:02;;;;;;;19.35;3.83;;;;;;;-3.03;100.00;100337.19;5016593;28;20045;-78
2021/04/06 05:40:06;;;;;;;3.30;3.03;;;;;;;-2.99;100.00;100338.03;5016369;28;20037;-78
2021/04/06 05:43:14;;;;;;;1.65;1.65;;;;;;;-2.94;100.00;100340.41;5017136;28;20053;-77
2021/04/06 05:46:18;;;;;;;3.28;2.92;;;;;;;-2.88;100.00;100338.13;5017224;28;20041;-77
2021/04/06 05:49:24;;;;;;;2.05;1.95;;;;;;;-2.86;100.00;100346.72;5015023;28;20049;-77
2021/04/06 05:52:29;;;;;;;1.60;1.60;;;;;;;-2.83;100.00;100351.41;5014798;28;20056;-77
2021/04/06 05:55:33;;;;;;;19.15;3.03;;;;;;;-2.81;100.00;100351.81;5025629;28;20049;-77
2021/04/06 05:58:37;;;;;;;1.30;1.30;;;;;;;-2.76;100.00;100346.03;5014831;28;20046;-78
2021/04/06 06:01:46;;;;;;;14.45;3.00;;;;;;;-2.65;100.00;100352.38;5014960;28;20374;-77
2021/04/06 06:04:49;;;;;;;1.20;1.20;;;;;;;-2.55;100.00;100347.03;5014888;28;20046;-77
2021/04/06 06:07:54;;;;;;;1.83;1.83;;;;;;;-2.43;100.00;100344.03;5015189;28;20525;-77
2021/04/06 06:11:05;;;;;;;1.45;1.45;;;;;;;-2.37;100.00;100342.53;5014645;28;20053;-77
2021/04/06 06:14:30;;;;;;;2.38;2.17;;;;;;;-2.31;100.00;100334.78;5015483;28;20497;-77
2021/04/06 06:17:34;;;;;;;1.65;1.65;;;;;;;-2.25;100.00;100338.72;5014990;28;20493;-77
2021/04/06 06:20:37;;;;;;;2.40;1.98;;;;;;;-2.11;100.00;100344.28;5018400;28;20052;-78
2021/04/06 06:23:41;;;;;;;1.40;1.40;;;;;;;-2.03;100.00;100348.63;5034269;28;20053;-78
2021/04/06 06:26:44;;;;;;;1.30;1.30;;;;;;;-1.99;100.00;100357.63;5034186;28;20053;-78
2021/04/06 06:29:48;;;;;;;1.30;1.30;;;;;;;-1.96;100.00;100350.63;5034191;28;20081;-78
2021/04/06 06:47:14;;;;;;;2.28;2.17;;;;;;;-1.40;100.00;100342.00;5009856;28;688390;-77
2021/04/06 06:50:18;;;;;;;1.38;1.38;;;;;;;-1.34;100.00;100343.22;5034910;28;20041;-77
2021/04/06 06:53:41;;;;;;;2.13;2.03;;;;;;;-1.31;100.00;100339.69;5034818;28;20040;-77
2021/04/06 06:56:45;;;;;;;9.60;1.88;;;;;;;-1.20;100.00;100337.78;5034609;28;20501;-77
2021/04/06 06:59:48;;;;;;;0.98;0.98;;;;;;;-1.12;100.00;100339.38;5034676;28;20048;-77
2021/04/06 07:02:51;;;;;;;1.13;1.13;;;;;;;-1.05;100.00;100331.22;5034710;28;20052;-77
2021/04/06 07:05:55;;;;;;;1.35;1.35;;;;;;;-0.96;100.00;100337.91;5034725;28;20052;-78
2021/04/06 07:08:59;;;;;;;1.60;1.60;;;;;;;-0.85;100.00;100337.91;5034485;28;20049;-78
2021/04/06 07:16:39;;;;;;;1.48;1.48;;;;;;;-0.65;100.00;100347.31;5035546;28;20056;-77
2021/04/06 07:19:44;;;;;;;1.60;1.60;;;;;;;-0.56;100.00;100339.53;5034515;28;20053;-78
2021/04/06 07:22:55;;;;;;;10.43;1.65;;;;;;;-0.50;100.00;100331.72;5014358;28;20052;-78
2021/04/06 07:26:00;;;;;;;1.23;1.23;;;;;;;-0.45;100.00;100334.84;5013593;28;20494;-77
2021/04/06 07:29:06;;;;;;;1.27;1.27;;;;;;;-0.40;100.00;100337.22;5033949;28;20378;-77
2021/04/06 07:32:13;;;;;;;1.13;1.13;;;;;;;-0.30;100.00;100333.69;5034086;28;20052;-77
2021/04/06 07:35:16;;;;;;;1.33;1.33;;;;;;;-0.24;100.00;100334.84;5033703;28;20378;-77
2021/04/06 07:38:20;;;;;;;24.75;1.58;;;;;;;-0.13;100.00;100340.34;5034061;28;20064;-77
2021/04/06 07:41:27;;;;;;;3.20;2.05;;;;;;;-0.03;100.00;100342.28;5034164;28;20038;-77
2021/04/06 07:44:36;;;;;;;1.20;1.20;;;;;;;0.06;100.00;100336.41;5034433;28;20497;-78
2021/04/06 07:47:41;;;;;;;1.00;1.00;;;;;;;0.18;100.00;100338.75;5033888;28;20064;-77
2021/04/06 07:50:48;;;;;;;1.58;1.58;;;;;;;0.24;100.00;100340.69;5034262;28;20497;-77
2021/04/06 07:53:54;;;;;;;1.15;1.15;;;;;;;0.27;100.00;100328.94;5034281;28;20048;-76
2021/04/06 07:57:03;;;;;;;1.02;1.02;;;;;;;0.40;100.00;100345.75;5033482;28;20052;-77
2021/04/06 08:00:07;;;;;;;1.45;1.45;;;;;;;0.51;100.00;100335.53;5034367;28;20056;-76
2021/04/06 08:03:10;;;;;;;1.10;1.10;;;;;;;0.56;100.00;100337.88;5039794;28;20048;-76
2021/04/06 08:06:20;;;;;;;0.98;0.98;;;;;;;0.61;100.00;100345.69;5034846;28;20485;-76
2021/04/06 08:12:35;;;;;;;1.20;1.20;;;;;;;0.79;100.00;100335.44;5033955;28;20501;-77
2021/04/06 08:15:39;;;;;;;1.10;1.10;;;;;;;0.91;100.00;100332.25;5033675;28;20045;-77
2021/04/06 08:18:49;;;;;;;0.90;0.90;;;;;;;1.00;100.00;100338.09;5033290;28;20513;-77
2021/04/06 08:22:23;;;;;;;0.90;0.90;;;;;;;1.15;100.00;100356.03;5032797;28;20056;-77
2021/04/06 08:25:30;;;;;;;1.08;1.08;;;;;;;1.16;100.00;100326.66;5033180;28;20060;-76
2021/04/06 08:28:37;;;;;;;1.13;1.13;;;;;;;1.24;100.00;100342.66;5033137;28;20068;-76
2021/04/06 08:31:41;;;;;;;1.00;1.00;;;;;;;1.35;100.00;100345.34;5033229;28;20056;-77
2021/04/06 08:34:51;;;;;;;0.45;0.45;;;;;;;1.45;100.00;100326.06;5033224;28;20390;-77
2021/04/06 08:37:54;;;;;;;1.10;1.10;;;;;;;1.50;100.00;100336.63;5033147;28;20052;-77
2021/04/06 08:41:04;;;;;;;2.70;2.50;;;;;;;1.57;100.00;100324.03;5033046;28;20041;-78
2021/04/06 08:44:09;;;;;;;1.95;1.73;;;;;;;1.63;100.00;100314.19;5031971;28;20053;-78
2021/04/06 08:47:44;;;;;;;1.13;1.13;;;;;;;1.67;100.00;100317.72;5032811;28;20056;-78
2021/04/06 08:50:48;;;;;;;1.30;1.30;;;;;;;1.75;100.00;100319.19;5032916;28;20124;-77
2021/04/06 08:53:57;;;;;;;1.23;1.23;;;;;;;1.85;100.00;100307.34;5032766;28;20052;-77
2021/04/06 08:57:07;;;;;;;1.20;1.20;;;;;;;1.95;100.00;100314.72;5033678;28;20052;-77
2021/04/06 09:00:13;;;;;;;1.10;1.10;;;;;;;2.00;100.00;100306.03;5032895;28;20040;-78
2021/04/06 09:03:23;;;;;;;1.38;1.38;;;;;;;2.01;100.00;100321.34;5032662;28;20068;-79
2021/04/06 09:06:28;;;;;;;1.25;1.25;;;;;;;2.10;100.00;100305.16;5032806;28;20048;-79
2021/04/06 09:09:31;;;;;;;1.02;1.02;;;;;;;2.21;100.00;100305.81;5032551;28;20124;-79
2021/04/06 09:12:39;;;;;;;1.00;1.00;;;;;;;2.36;100.00;100296.22;5032419;28;20049;-81
2021/04/06 09:15:47;;;;;;;0.98;0.98;;;;;;;2.50;100.00;100293.34;5032273;28;20068;-81
2021/04/06 09:18:58;;;;;;;0.95;0.95;;;;;;;2.64;100.00;100290.41;5032650;28;20052;-81
2021/04/06 09:22:04;;;;;;;0.70;0.70;;;;;;;2.79;100.00;100293.78;5032339;28;20064;-80
2021/04/06 09:25:16;;;;;;;1.10;1.00;;;;;;;2.95;100.00;100297.50;5032818;28;20040;-80
2021/04/06 09:28:19;;;;;;;1.70;1.60;;;;;;;3.07;100.00;100294.16;5032611;28;20044;-77
2021/04/06 09:35:57;;;;;;;0.68;0.68;;;;;;;3.41;100.00;100301.56;5033663;28;20053;-78
2021/04/06 09:39:03;;;;;;;0.47;0.47;;;;;;;3.62;100.00;100303.97;5032622;28;20504;-78
2021/04/06 09:42:07;;;;;;;1.45;1.27;;;;;;;3.80;100.00;100297.00;5032590;28;20061;-78
2021/04/06 09:45:11;;;;;;;0.40;0.40;;;;;;;3.98;100.00;100302.22;5031520;28;20052;-79
2021/04/06 09:48:16;;;;;;;0.85;0.80;;;;;;;4.05;100.00;100302.06;5032332;28;20386;-76
2021/04/06 09:51:20;;;;;;;1.00;1.00;;;;;;;4.10;100.00;100309.88;5031770;28;20052;-76
2021/04/06 09:54:28;;;;;;;0.70;0.70;;;;;;;4.13;100.00;100303.53;5031936;28;20049;-77
2021/04/06 09:57:41;;;;;;;0.93;0.93;;;;;;;4.28;100.00;100298.53;5032052;28;20056;-78
2021/04/06 10:00:45;;;;;;;0.60;0.60;;;;;;;4.49;100.00;100304.41;5032216;28;20056;-76
2021/04/06 10:03:55;;;;;;;3.30;0.68;;;;;;;4.65;100.00;100289.16;5032144;28;20386;-78
2021/04/06 10:07:10;;;;;;;0.50;0.50;;;;;;;4.80;100.00;100282.13;5032743;28;20044;-75
2021/04/06 10:10:29;;;;;;;0.80;0.80;;;;;;;4.93;100.00;100283.03;5032222;28;20274;-76
2021/04/06 10:13:35;;;;;;;0.50;0.50;;;;;;;5.10;100.00;100277.16;5032088;28;20052;-78
2021/04/06 10:16:40;;;;;;;0.30;0.30;;;;;;;5.18;95.13;100272.22;5031874;28;20047;-79
2021/04/06 10:20:07;;;;;;;0.75;0.75;;;;;;;5.48;96.43;100274.69;5032069;28;20068;-79
2021/04/06 10:23:12;;;;;;;0.40;0.40;;;;;;;5.38;92.30;100272.97;5015649;28;20057;-79
2021/04/06 10:26:21;;;;;;;0.50;0.50;;;;;;;5.24;92.10;100253.97;5014909;28;20049;-78
2021/04/06 10:29:31;;;;;;;1.95;0.40;;;;;;;5.23;92.08;100266.22;5015693;28;20053;-78
2021/04/06 10:32:41;;;;;;;0.65;0.65;;;;;;;5.42;96.13;100265.34;5015889;28;20064;-76
2021/04/06 10:35:50;;;;;;;1.85;0.50;;;;;;;5.22;94.27;100267.41;5015793;28;20049;-76
2021/04/06 10:39:01;;;;;;;0.40;0.40;;;;;;;5.01;94.27;100267.88;5015494;28;20049;-77
2021/04/06 10:42:08;;;;;;;0.23;0.23;;;;;;;5.34;98.05;100263.97;5014984;28;20057;-77
2021/04/06 10:45:12;;;;;;;0.45;0.45;;;;;;;5.73;96.33;100257.50;5015537;28;20057;-78
2021/04/06 10:48:22;;;;;;;0.35;0.35;;;;;;;5.56;95.85;100248.47;5015272;28;20064;-76
2021/04/06 10:51:26;;;;;;;1.15;0.80;;;;;;;5.47;96.31;100244.75;5015549;28;20041;-77
2021/04/06 10:54:30;;;;;;;2.42;0.85;;;;;;;5.62;96.86;100252.25;5014525;28;20117;-76
2021/04/06 10:57:37;;;;;;;0.40;0.40;;;;;;;5.97;95.73;100247.84;5015349;28;20060;-78
2021/04/06 11:00:41;;;;;;;3.05;0.70;;;;;;;6.13;87.60;100233.97;5016588;28;20048;-78
2021/04/06 11:03:51;;;;;;;0.60;0.60;;;;;;;5.87;82.36;100229.53;5016105;28;20052;-76
2021/04/06 11:06:57;;;;;;;0.73;0.73;;;;;;;5.96;85.88;100238.78;5015048;28;20045;-79
2021/04/06 11:10:06;;;;;;;1.02;0.93;;;;;;;6.18;86.87;100233.44;5015401;28;20060;-78
2021/04/06 11:17:45;;;;;;;0.22;0.22;;;;;;;5.55;81.95;100235.84;5015466;28;20057;-77
2021/04/06 11:20:49;;;;;;;0.57;0.57;;;;;;;5.68;79.99;100239.47;5031664;28;20057;-75
2021/04/06 11:23:53;;;;;;;0.50;0.50;;;;;;;6.09;78.94;100236.84;5034691;28;20489;-78
2021/04/06 11:26:57;;;;;;;2.60;0.63;;;;;;;6.76;75.02;100234.16;5026823;28;20065;-76
2021/04/06 11:30:01;;;;;;;0.60;0.55;;;;;;;6.84;74.98;100241.81;5014574;28;20053;-78
2021/04/06 11:33:05;;;;;;;0.20;0.20;;;;;;;6.69;76.96;100228.84;5015997;28;20165;-77
2021/04/06 11:36:09;;;;;;;0.32;0.32;;;;;;;6.43;75.70;100224.47;5014107;28;20061;-76
2021/04/06 11:39:16;;;;;;;0.52;0.52;;;;;;;6.68;77.75;100227.28;5033393;28;20060;-76
2021/04/06 11:42:20;;;;;;;2.65;0.43;;;;;;;6.76;72.48;100217.56;5034165;28;20052;-76
2021/04/06 11:45:24;;;;;;;0.20;0.20;;;;;;;6.58;76.25;100223.59;5034147;28;20052;-75
2021/04/06 11:48:27;;;;;;;0.40;0.40;;;;;;;6.68;71.98;100228.06;5033726;28;20072;-77
2021/04/06 11:51:31;;;;;;;1.17;0.55;;;;;;;6.77;70.92;100224.66;5034128;28;20052;-75
2021/04/06 11:54:34;;;;;;;0.73;0.68;;;;;;;6.94;72.06;100223.34;5033884;28;20044;-75
2021/04/06 11:57:39;;;;;;;0.40;0.40;;;;;;;6.52;66.51;100213.56;5034103;28;20492;-75
2021/04/06 12:00:43;;;;;;;0.82;0.82;;;;;;;6.02;69.95;100233.50;5033956;28;20424;-75
2021/04/06 12:03:46;;;;;;;0.30;0.30;;;;;;;5.72;76.06;100228.31;5032706;28;20060;-76
2021/04/06 12:06:50;;;;;;;0.93;0.43;;;;;;;5.91;82.17;100219.94;5033464;28;20059;-75
2021/04/06 12:09:54;;;;;;;0.30;0.30;;;;;;;6.29;77.26;100216.56;5033936;28;20497;-77
2021/04/06 12:12:57;;;;;;;0.63;0.40;;;;;;;6.16;73.81;100213.75;5033844;28;20052;-75
2021/04/06 12:16:01;;;;;;;0.25;0.25;;;;;;;5.79;70.88;100206.81;5014597;28;20044;-76
2021/04/06 12:19:05;;;;;;;0.47;0.47;;;;;;;5.63;73.21;100220.63;5013876;28;20117;-75
2021/04/06 12:22:08;;;;;;;0.30;0.30;;;;;;;5.54;76.89;100212.22;5014008;28;20048;-76
2021/04/06 12:25:13;;;;;;;1.00;0.50;;;;;;;5.52;80.93;100217.41;5014167;28;20402;-78
2021/04/06 12:28:16;;;;;;;0.52;0.52;;;;;;;6.04;83.38;100200.69;5016076;28;20045;-78
2021/04/06 12:31:19;;;;;;;3.50;0.52;;;;;;;6.81;81.08;100198.44;5015907;28;20048;-79
2021/04/06 12:34:23;;;;;;;9.32;1.05;;;;;;;7.45;77.16;100191.63;5017308;28;20052;-80
2021/04/06 12:37:27;;;;;;;0.10;0.10;;;;;;;7.34;69.41;100202.28;5016077;28;20052;-78
2021/04/06 12:40:32;;;;;;;4.05;0.65;;;;;;;6.90;70.71;100203.31;5013852;28;20061;-78
2021/04/06 12:43:36;;;;;;;0.40;0.40;;;;;;;6.45;71.39;100209.00;5012871;28;20497;-78
2021/04/06 12:46:39;;;;;;;0.22;0.22;;;;;;;6.83;73.17;100196.00;5023600;28;20049;-79
2021/04/06 12:49:43;;;;;;;0.40;0.20;;;;;;;7.23;68.17;100192.78;5012772;28;20100;-78
2021/04/06 12:52:47;;;;;;;0.38;0.38;;;;;;;6.89;64.24;100196.19;5013199;28;20053;-77
2021/04/06 12:55:51;;;;;;;0.32;0.30;;;;;;;6.51;62.99;100185.09;5012904;28;20045;-79
2021/04/06 12:58:54;;;;;;;1.85;0.68;;;;;;;6.45;66.27;100186.09;5012991;28;20394;-78
2021/04/06 13:01:58;;;;;;;0.55;0.55;;;;;;;6.43;65.19;100177.44;5013060;28;20061;-78
2021/04/06 13:05:05;;;;;;;0.55;0.38;;;;;;;6.35;66.58;100170.56;5013132;28;20421;-80
2021/04/06 13:08:10;;;;;;;0.70;0.70;;;;;;;6.79;70.47;100175.16;5012943;28;20414;-77
2021/04/06 13:11:13;;;;;;;0.40;0.40;;;;;;;7.06;66.35;100164.41;5012999;28;20056;-77
2021/04/06 13:14:17;;;;;;;0.95;0.80;;;;;;;6.97;63.01;100161.56;5020287;28;20394;-78
2021/04/06 13:17:21;;;;;;;0.73;0.28;;;;;;;7.07;65.78;100165.97;5032393;28;20048;-77
2021/04/06 13:20:25;;;;;;;0.63;0.50;;;;;;;7.24;63.18;100158.31;5032671;28;20060;-77
2021/04/06 13:23:29;;;;;;;3.88;0.80;;;;;;;7.17;65.68;100153.78;5032411;28;20099;-77
2021/04/06 13:26:34;;;;;;;7.85;0.70;;;;;;;7.21;66.11;100151.66;5032127;28;20056;-78
2021/04/06 13:29:38;;;;;;;4.13;0.50;;;;;;;7.44;64.04;100136.66;5032085;28;20053;-78
2021/04/06 13:32:42;;;;;;;2.05;0.40;;;;;;;7.59;64.14;100130.19;5033282;28;20044;-78
2021/04/06 13:35:46;;;;;;;0.30;0.30;;;;;;;7.60;57.75;100142.81;5032489;28;20044;-77
2021/04/06 13:38:49;;;;;;;0.45;0.45;;;;;;;7.05;56.40;100139.94;5032154;28;20052;-77
2021/04/06 13:41:53;;;;;;;0.25;0.25;;;;;;;6.87;54.99;100132.19;5032460;28;20048;-77
2021/04/06 13:44:56;;;;;;;0.57;0.57;;;;;;;6.92;54.98;100134.44;5032670;28;20108;-79
2021/04/06 13:48:04;;;;;;;0.60;0.60;;;;;;;6.98;56.13;100131.88;5032019;28;20040;-77
2021/04/06 13:51:08;;;;;;;0.22;0.22;;;;;;;6.93;56.48;100127.66;5031836;28;20053;-78
2021/04/06 13:54:12;;;;;;;0.40;0.40;;;;;;;6.91;55.86;100135.63;5032845;28;20497;-78
2021/04/06 13:57:15;;;;;;;0.30;0.30;;;;;;;7.08;57.05;100123.22;5035464;28;20056;-77
2021/04/06 14:00:23;;;;;;;0.60;0.60;;;;;;;7.42;58.95;100131.59;5036202;28;20052;-77
2021/04/06 14:03:27;;;;;;;0.20;0.20;;;;;;;7.19;58.46;100134.72;5036070;28;20056;-78
2021/04/06 14:06:30;;;;;;;0.40;0.40;;;;;;;7.01;67.00;100140.06;5036001;28;20048;-78
2021/04/06 14:09:33;;;;;;;0.40;0.40;;;;;;;6.69;79.55;100123.69;5036165;28;20056;-78
2021/04/06 14:12:37;;;;;;;0.68;0.45;;;;;;;6.67;87.48;100131.66;5036261;28;20052;-77
2021/04/06 14:15:42;;;;;;;0.20;0.20;;;;;;;6.22;87.94;100142.09;5035787;28;20056;-78
2021/04/06 14:18:45;;;;;;;3.67;1.02;;;;;;;5.75;89.70;100139.03;5035568;28;20064;-79
2021/04/06 14:21:49;;;;;;;0.32;0.32;;;;;;;5.65;85.51;100151.91;5035670;28;20080;-79
2021/04/06 14:24:52;;;;;;;0.20;0.20;;;;;;;5.39;83.54;100156.53;5035710;28;20048;-80
2021/04/06 14:27:57;;;;;;;0.50;0.50;;;;;;;5.14;83.83;100155.59;5035678;28;20052;-79
2021/04/06 14:31:01;;;;;;;0.70;0.68;;;;;;;5.35;85.55;100155.06;5034533;28;20402;-81
2021/04/06 14:34:07;;;;;;;0.93;0.82;;;;;;;5.67;82.87;100138.47;5015505;28;20044;-78
2021/04/06 14:37:10;;;;;;;2.30;1.05;;;;;;;6.02;80.29;100140.28;5033579;28;20057;-81
2021/04/06 14:40:15;;;;;;;1.88;1.30;;;;;;;6.73;79.79;100169.41;5035190;28;20493;-78
2021/04/06 14:43:22;;;;;;;3.03;0.63;;;;;;;6.42;94.63;100165.59;5035221;28;20044;-80
2021/04/06 14:46:26;;;;;;;0.57;0.57;;;;;;;5.90;100.00;100165.88;5034604;28;20048;-77
2021/04/06 14:49:30;;;;;;;0.73;0.73;;;;;;;5.22;100.00;100184.56;5035234;28;20052;-76
2021/04/06 14:52:33;;;;;;;0.70;0.70;;;;;;;4.38;100.00;100215.63;5035013;28;20386;-74
2021/04/06 14:55:37;;;;;;;1.48;1.10;;;;;;;3.69;100.00;100221.25;5035028;28;20522;-78
2021/04/06 14:58:45;;;;;;;10.73;1.42;;;;;;;2.93;100.00;100255.88;5034954;28;20052;-79